Mablethorpe, United Kingdom
Current Conditions -  °F | °C
As of 5:50 PM on Wednesday 26 Nov 2014 (Local Time) from EGXS Reporting Station
Overcast Overcast  
Wind Chill: 44°   Ceiling: 300
Heat Index: 48°   Visibility: 2.1mi
Dew Point: 46°   Wind: 9mph
Humidity: 93%   Direction: 80°E
Pressure: 29.8"   Gusts: NA
Location:  53.34°N, 0.24°E
Report Text: EGXS 261750Z AUTO 08008KT 3500 // OVC003/// 09/08 Q1009
Loading
Personal Weather Stations






























Interactive Weather Map New forecast layout! Learn more

10-Day Weather Forecast

Advertisements
Track Severe Weather on mobile